»·PEaware :: N101HZ KVNY-KBJC

N101HZ :: KVNY-KBJC

FLIGHT INFORMATION

Flight Status: Arrived
Operator: Privately registered:
United States
More flights under this callsign
Pilot: Chris A. (85)
Aircraft: DASSAULT AVIATION FALCON 2000
(F2TH)
More flights by this aircraft type
Origin: KVNY Van Nuys
United States
Destination: KBJC Jeffco
United States
More flights between these airports :: More routes between these airports
Route: +HARYS1 LAS J146 DVC HBU POWDR8
File this flight plan on PilotEdge
Remarks: PBN / A1B1D1 DOF / 171222 REG / N101HZ EET / KZDV0059 RMK / TCAS
Altitude:
(Current/Filed)
41,000ft
Speed:
(Current/Filed)
397kts
Departed: 22-Dec-17 08:57 AM
Arrived: 22-Dec-17 10:53 AM
Distance/Time
Traveled:
725nm/1:55
Distance/Time
To Go:
Arrived

Flight Plot

Page will automatically refresh every two minutes.

Flight plan parsing failed; only flown route is shown


Map Options




Map Legend


Flown Route
Filed Route
Departure Airport
Arrival Airport
Navaid (VOR, NDB)
Fix

Horizontal Profiles

Position Reports

Time Latitude Longitude Heading Altitude Ground
Speed
22-Dec-17 08:23 34.205915 -118.487039 172 807ft 0kts
22-Dec-17 08:24 34.205915 -118.487039 172 807ft 0kts
22-Dec-17 08:25 34.205915 -118.487039 172 807ft 0kts
22-Dec-17 08:26 34.205915 -118.487039 172 807ft 0kts
22-Dec-17 08:27 34.205915 -118.487039 172 807ft 0kts
22-Dec-17 08:28 34.205915 -118.487039 172 807ft 0kts
22-Dec-17 08:29 34.205915 -118.487039 172 807ft 0kts
22-Dec-17 08:30 34.205915 -118.487039 172 807ft 0kts
22-Dec-17 08:31 34.205915 -118.487039 172 807ft 0kts
22-Dec-17 08:32 34.205915 -118.487039 172 807ft 0kts
22-Dec-17 08:33 34.205915 -118.487039 172 807ft 0kts
22-Dec-17 08:34 34.205915 -118.487039 172 807ft 0kts
22-Dec-17 08:35 34.205915 -118.487039 172 807ft 0kts
22-Dec-17 08:36 34.205915 -118.487039 172 807ft 0kts
22-Dec-17 08:37 34.205915 -118.487039 172 807ft 0kts
22-Dec-17 08:38 34.205915 -118.487039 172 807ft 0kts
22-Dec-17 08:39 34.205915 -118.487039 172 807ft 0kts
22-Dec-17 08:40 34.205915 -118.487039 172 807ft 0kts
22-Dec-17 08:41 34.205915 -118.487039 172 807ft 0kts
22-Dec-17 08:42 34.205915 -118.487039 172 807ft 0kts
22-Dec-17 08:43 34.205915 -118.487039 172 807ft 0kts
22-Dec-17 08:44 34.205915 -118.487039 172 807ft 0kts
22-Dec-17 08:45 34.205915 -118.487039 172 807ft 0kts
22-Dec-17 08:46 34.205915 -118.487039 172 807ft 0kts
22-Dec-17 08:47 34.205915 -118.487039 172 807ft 0kts
22-Dec-17 08:48 34.205915 -118.487039 172 807ft 0kts
22-Dec-17 08:49 34.205915 -118.487039 172 807ft 0kts
22-Dec-17 08:50 34.205915 -118.487039 172 807ft 0kts
22-Dec-17 08:51 34.205915 -118.487039 172 807ft 0kts
22-Dec-17 08:52 34.205915 -118.487039 172 807ft 0kts
22-Dec-17 08:53 34.205915 -118.487039 172 807ft 0kts
22-Dec-17 08:54 34.205915 -118.487039 172 807ft 0kts
22-Dec-17 08:55 34.205915 -118.487039 172 807ft 0kts
22-Dec-17 08:56 34.205914 -118.487039 172 807ft 0kts
22-Dec-17 08:57 34.205857 -118.487966 281 807ft 6kts
22-Dec-17 08:58 34.208655 -118.488214 354 807ft 13kts
22-Dec-17 08:59 34.211675 -118.488526 355 807ft 7kts
22-Dec-17 09:00 34.214614 -118.488834 355 807ft 12kts
22-Dec-17 09:01 34.218320 -118.489466 355 807ft 13kts
22-Dec-17 09:02 34.218421 -118.491215 175 807ft 4kts
22-Dec-17 09:03 34.185028 -118.487708 166 1739ft 171kts
22-Dec-17 09:04 34.153628 -118.439252 121 3203ft 197kts
22-Dec-17 09:05 34.150183 -118.382001 20 4786ft 197kts
22-Dec-17 09:06 34.202770 -118.393977 342 6324ft 199kts
22-Dec-17 09:07 34.259906 -118.412044 355 8591ft 240kts
22-Dec-17 09:08 34.336184 -118.411804 3 11280ft 307kts
22-Dec-17 09:09 34.422912 -118.372920 29 14319ft 344kts
22-Dec-17 09:10 34.494504 -118.303539 35 16610ft 327kts
22-Dec-17 09:11 34.563498 -118.232591 33 18914ft 322kts
22-Dec-17 09:12 34.636223 -118.159122 37 21393ft 369kts
22-Dec-17 09:13 34.684476 -118.038452 71 24026ft 426kts
22-Dec-17 09:14 34.699076 -117.891938 79 26777ft 442kts
22-Dec-17 09:15 34.704913 -117.744252 78 29630ft 433kts
22-Dec-17 09:16 34.710678 -117.598948 78 32003ft 427kts
22-Dec-17 09:17 34.727710 -117.459107 64 34012ft 410kts
22-Dec-17 09:18 34.760986 -117.328567 60 36005ft 399kts
22-Dec-17 09:19 34.795030 -117.201970 60 37914ft 387kts
22-Dec-17 09:20 34.827445 -117.079889 60 39699ft 370kts
22-Dec-17 09:21 34.857908 -116.963880 62 41335ft 350kts
22-Dec-17 09:22 34.888762 -116.847559 62 41452ft 374kts
22-Dec-17 09:23 34.927839 -116.727624 47 41452ft 383kts
22-Dec-17 09:24 34.997073 -116.625973 39 41454ft 397kts
22-Dec-17 09:25 35.073624 -116.525176 39 41456ft 413kts
22-Dec-17 09:26 35.151500 -116.422450 39 41457ft 413kts
22-Dec-17 09:27 35.229519 -116.318983 39 41458ft 412kts
22-Dec-17 09:28 35.307110 -116.215718 39 41460ft 414kts
22-Dec-17 09:29 35.385059 -116.111670 39 41457ft 415kts
22-Dec-17 09:30 35.463100 -116.007092 39 41455ft 415kts
22-Dec-17 09:31 35.541105 -115.902273 39 41450ft 417kts
22-Dec-17 09:32 35.619684 -115.796194 40 41449ft 420kts
22-Dec-17 09:33 35.697703 -115.689531 40 41449ft 419kts
22-Dec-17 09:34 35.775352 -115.582631 40 41449ft 418kts
22-Dec-17 09:35 35.852899 -115.475448 40 41451ft 417kts
22-Dec-17 09:36 35.916910 -115.386708 40 41453ft 416kts
22-Dec-17 09:37 35.993481 -115.280255 40 41456ft 415kts
22-Dec-17 09:38 36.079231 -115.149644 52 41450ft 430kts
22-Dec-17 09:39 36.120551 -115.036198 61 41452ft 439kts
22-Dec-17 09:40 36.169443 -114.870005 62 41457ft 441kts
22-Dec-17 09:41 36.205371 -114.750953 61 41458ft 441kts
22-Dec-17 09:42 36.248938 -114.608827 61 41453ft 443kts
22-Dec-17 09:43 36.292516 -114.465958 61 41447ft 444kts
22-Dec-17 09:44 36.336136 -114.321993 61 41445ft 446kts
22-Dec-17 09:45 36.379450 -114.178077 62 41444ft 446kts
22-Dec-17 09:46 36.422544 -114.034019 62 41444ft 442kts
22-Dec-17 09:47 36.465069 -113.891168 62 41442ft 441kts
22-Dec-17 09:48 36.507456 -113.748193 62 41441ft 442kts
22-Dec-17 09:49 36.549825 -113.604424 62 41435ft 441kts
22-Dec-17 09:50 36.591936 -113.460976 63 41426ft 443kts
22-Dec-17 09:51 36.634144 -113.316784 62 41433ft 443kts
22-Dec-17 09:52 36.676289 -113.172351 63 41423ft 443kts
22-Dec-17 09:53 36.717454 -113.027475 63 41421ft 445kts
22-Dec-17 09:54 36.759378 -112.881974 63 41417ft 445kts
22-Dec-17 09:55 36.801294 -112.736100 63 41412ft 448kts
22-Dec-17 09:56 36.842840 -112.589869 64 41536ft 444kts
22-Dec-17 09:57 36.882628 -112.447198 65 42502ft 424kts
22-Dec-17 09:58 36.920485 -112.310922 65 43315ft 410kts
22-Dec-17 09:59 36.958553 -112.175546 65 43358ft 417kts
22-Dec-17 10:00 36.997170 -112.037252 65 43368ft 424kts
22-Dec-17 10:01 37.036094 -111.896856 65 43360ft 431kts
22-Dec-17 10:02 37.075267 -111.754691 66 43353ft 434kts
22-Dec-17 10:03 37.114646 -111.610868 66 43355ft 436kts
22-Dec-17 10:04 37.153894 -111.466660 66 43356ft 439kts
22-Dec-17 10:05 37.193414 -111.320601 66 43356ft 443kts
22-Dec-17 10:06 37.232774 -111.174311 66 43356ft 444kts
22-Dec-17 10:07 37.272190 -111.027284 66 43356ft 445kts
22-Dec-17 10:08 37.311644 -110.879152 67 43358ft 447kts
22-Dec-17 10:09 37.350800 -110.731160 67 43348ft 447kts
22-Dec-17 10:10 37.389888 -110.582699 67 43359ft 448kts
22-Dec-17 10:11 37.428813 -110.433332 67 43350ft 450kts
22-Dec-17 10:12 37.467772 -110.283601 67 43345ft 451kts
22-Dec-17 10:13 37.506513 -110.133738 67 43341ft 451kts
22-Dec-17 10:14 37.545212 -109.983126 67 43338ft 451kts
22-Dec-17 10:15 37.583563 -109.832913 67 43336ft 450kts
22-Dec-17 10:16 37.621715 -109.682531 67 43338ft 449kts
22-Dec-17 10:17 37.659645 -109.532214 67 43338ft 451kts
22-Dec-17 10:18 37.697569 -109.380979 68 43335ft 453kts
22-Dec-17 10:19 37.733981 -109.234776 68 43324ft 453kts
22-Dec-17 10:20 37.771699 -109.082394 68 43306ft 456kts
22-Dec-17 10:21 37.810938 -108.930050 65 43286ft 455kts
22-Dec-17 10:22 37.860080 -108.782717 62 43268ft 452kts
22-Dec-17 10:23 37.911088 -108.637317 62 43252ft 452kts
22-Dec-17 10:24 37.962066 -108.491391 62 43221ft 452kts
22-Dec-17 10:25 38.012562 -108.345626 62 43234ft 453kts
22-Dec-17 10:26 38.063022 -108.198957 63 43225ft 455kts
22-Dec-17 10:27 38.113620 -108.050986 63 43218ft 457kts
22-Dec-17 10:28 38.164048 -107.902686 63 43230ft 458kts
22-Dec-17 10:29 38.214430 -107.753743 63 43248ft 462kts
22-Dec-17 10:30 38.265697 -107.601496 63 43266ft 472kts
22-Dec-17 10:31 38.317518 -107.446692 63 43264ft 479kts
22-Dec-17 10:32 38.369915 -107.289187 64 43254ft 484kts
22-Dec-17 10:33 38.422001 -107.131562 64 43243ft 481kts
22-Dec-17 10:34 38.485483 -106.982468 51 43239ft 480kts
22-Dec-17 10:35 38.567890 -106.847210 47 42758ft 479kts
22-Dec-17 10:36 38.649939 -106.717251 47 40647ft 463kts
22-Dec-17 10:37 38.729019 -106.589943 47 38416ft 452kts
22-Dec-17 10:38 38.806086 -106.463969 47 36005ft 444kts
22-Dec-17 10:39 38.881712 -106.339644 47 33323ft 443kts
22-Dec-17 10:40 38.957434 -106.214702 48 30224ft 439kts
22-Dec-17 10:41 39.031056 -106.092503 48 27130ft 421kts
22-Dec-17 10:42 39.100659 -105.976450 48 24064ft 400kts
22-Dec-17 10:43 39.166759 -105.865978 48 21964ft 376kts
22-Dec-17 10:44 39.228957 -105.761924 47 20489ft 359kts
22-Dec-17 10:45 39.288663 -105.661685 47 19261ft 347kts
22-Dec-17 10:46 39.345020 -105.565924 47 19090ft 321kts
22-Dec-17 10:47 39.399172 -105.474946 47 19080ft 323kts
22-Dec-17 10:48 39.454989 -105.380539 47 17937ft 327kts
22-Dec-17 10:49 39.507695 -105.290700 47 16331ft 304kts
22-Dec-17 10:50 39.553245 -105.212961 48 14876ft 294kts
22-Dec-17 10:51 39.614680 -105.153099 10 13158ft 269kts
22-Dec-17 10:52 39.685642 -105.131920 4 11256ft 255kts
22-Dec-17 10:53 39.753697 -105.140948 348 10009ft 235kts
22-Dec-17 10:54 39.816965 -105.156087 348 8951ft 227kts
22-Dec-17 10:55 39.878623 -105.171912 348 7752ft 224kts
22-Dec-17 10:56 39.935264 -105.172624 38 6784ft 187kts
22-Dec-17 10:57 39.931874 -105.142455 187 6539ft 115kts
22-Dec-17 10:58 39.910654 -105.119646 125 5610ft 93kts
22-Dec-17 10:59 39.906750 -105.110977 97 5610ft 9kts
22-Dec-17 11:00 39.906667 -105.109556 38 5610ft 1kts
22-Dec-17 11:01 39.907366 -105.109797 24 5610ft 4kts
22-Dec-17 11:02 39.908443 -105.110690 304 5610ft 2kts
22-Dec-17 11:03 39.908522 -105.110837 304 5610ft 0kts
22-Dec-17 11:04 39.908522 -105.110837 304 5610ft 0kts
22-Dec-17 11:05 39.908522 -105.110837 304 5610ft 0kts
22-Dec-17 11:06 39.908522 -105.110837 304 5610ft 0kts
22-Dec-17 11:07 39.908522 -105.110837 304 5610ft 0kts
22-Dec-17 11:08 39.908522 -105.110837 304 5610ft 0kts
22-Dec-17 11:09 39.908522 -105.110837 304 5610ft 0kts
22-Dec-17 11:10 39.908522 -105.110837 304 5610ft 0kts
22-Dec-17 11:11 39.908522 -105.110837 304 5610ft 0kts
22-Dec-17 11:12 39.908522 -105.110837 304 5610ft 0kts

Navigation Log

Ident Type
Flight plan parsing failed, navigation log unavailable